sensor_id;sensor_type;location;lat;lon;timestamp;temperature;humidity
10662;DHT22;5379;51.034;7.006;2022-09-23T00:00:12;15.00;98.90
10662;DHT22;5379;51.034;7.006;2022-09-23T00:02:39;14.90;98.70
10662;DHT22;5379;51.034;7.006;2022-09-23T00:05:09;14.90;98.40
10662;DHT22;5379;51.034;7.006;2022-09-23T00:07:36;15.00;98.60
10662;DHT22;5379;51.034;7.006;2022-09-23T00:10:04;15.00;99.10
10662;DHT22;5379;51.034;7.006;2022-09-23T00:12:32;14.90;98.50
10662;DHT22;5379;51.034;7.006;2022-09-23T00:14:59;14.90;99.20
10662;DHT22;5379;51.034;7.006;2022-09-23T00:17:26;14.90;98.90
10662;DHT22;5379;51.034;7.006;2022-09-23T00:19:53;15.00;98.60
10662;DHT22;5379;51.034;7.006;2022-09-23T00:22:22;14.90;98.40
10662;DHT22;5379;51.034;7.006;2022-09-23T00:24:49;15.00;99.00
10662;DHT22;5379;51.034;7.006;2022-09-23T00:27:16;15.00;99.00
10662;DHT22;5379;51.034;7.006;2022-09-23T00:29:45;15.10;99.20
10662;DHT22;5379;51.034;7.006;2022-09-23T00:32:12;15.00;98.50
10662;DHT22;5379;51.034;7.006;2022-09-23T00:34:40;14.90;98.40
10662;DHT22;5379;51.034;7.006;2022-09-23T00:37:09;14.90;98.50
10662;DHT22;5379;51.034;7.006;2022-09-23T00:39:37;14.80;98.50
10662;DHT22;5379;51.034;7.006;2022-09-23T00:42:05;14.70;98.70
10662;DHT22;5379;51.034;7.006;2022-09-23T00:44:41;14.70;98.70
10662;DHT22;5379;51.034;7.006;2022-09-23T00:47:13;14.60;98.80
10662;DHT22;5379;51.034;7.006;2022-09-23T00:49:41;14.60;99.00
10662;DHT22;5379;51.034;7.006;2022-09-23T00:52:13;14.60;99.00
10662;DHT22;5379;51.034;7.006;2022-09-23T00:54:44;14.50;99.00
10662;DHT22;5379;51.034;7.006;2022-09-23T00:57:14;14.50;99.20
10662;DHT22;5379;51.034;7.006;2022-09-23T00:59:42;14.50;99.40
10662;DHT22;5379;51.034;7.006;2022-09-23T01:02:10;14.50;99.30
10662;DHT22;5379;51.034;7.006;2022-09-23T01:04:39;14.50;99.20
10662;DHT22;5379;51.034;7.006;2022-09-23T01:07:06;14.50;99.50
10662;DHT22;5379;51.034;7.006;2022-09-23T01:09:33;14.50;99.60
10662;DHT22;5379;51.034;7.006;2022-09-23T01:12:08;14.40;99.60
10662;DHT22;5379;51.034;7.006;2022-09-23T01:14:47;14.50;99.70
10662;DHT22;5379;51.034;7.006;2022-09-23T01:17:24;14.40;99.60
10662;DHT22;5379;51.034;7.006;2022-09-23T01:20:21;14.40;99.90
10662;DHT22;5379;51.034;7.006;2022-09-23T01:23:06;14.40;99.90
10662;DHT22;5379;51.034;7.006;2022-09-23T01:25:50;14.40;99.90
10662;DHT22;5379;51.034;7.006;2022-09-23T01:28:42;14.30;99.90
10662;DHT22;5379;51.034;7.006;2022-09-23T01:31:20;14.30;99.90
10662;DHT22;5379;51.034;7.006;2022-09-23T01:33:53;14.30;99.90
10662;DHT22;5379;51.034;7.006;2022-09-23T01:36:24;14.30;99.90
10662;DHT22;5379;51.034;7.006;2022-09-23T01:38:56;14.30;99.90
10662;DHT22;5379;51.034;7.006;2022-09-23T01:41:37;14.50;99.90
10662;DHT22;5379;51.034;7.006;2022-09-23T01:44:12;14.40;99.90
10662;DHT22;5379;51.034;7.006;2022-09-23T01:46:48;14.40;99.90
10662;DHT22;5379;51.034;7.006;2022-09-23T01:49:19;14.40;99.90
10662;DHT22;5379;51.034;7.006;2022-09-23T01:51:51;14.50;99.90
10662;DHT22;5379;51.034;7.006;2022-09-23T01:54:23;14.60;99.90
10662;DHT22;5379;51.034;7.006;2022-09-23T01:56:56;14.60;99.90
10662;DHT22;5379;51.034;7.006;2022-09-23T01:59:29;14.60;99.90
10662;DHT22;5379;51.034;7.006;2022-09-23T02:02:03;14.60;99.90
10662;DHT22;5379;51.034;7.006;2022-09-23T02:04:34;14.60;99.90
10662;DHT22;5379;51.034;7.006;2022-09-23T02:07:09;14.60;99.90
10662;DHT22;5379;51.034;7.006;2022-09-23T02:09:42;14.60;99.90
10662;DHT22;5379;51.034;7.006;2022-09-23T02:12:15;14.50;99.70
10662;DHT22;5379;51.034;7.006;2022-09-23T02:14:48;14.40;99.70
10662;DHT22;5379;51.034;7.006;2022-09-23T02:17:23;14.40;99.90
10662;DHT22;5379;51.034;7.006;2022-09-23T02:19:55;14.40;99.90
10662;DHT22;5379;51.034;7.006;2022-09-23T02:22:28;14.40;99.90
10662;DHT22;5379;51.034;7.006;2022-09-23T02:25:00;14.50;99.90
10662;DHT22;5379;51.034;7.006;2022-09-23T02:27:31;14.50;99.90
10662;DHT22;5379;51.034;7.006;2022-09-23T02:30:04;14.40;99.90
10662;DHT22;5379;51.034;7.006;2022-09-23T02:32:42;14.40;99.90
10662;DHT22;5379;51.034;7.006;2022-09-23T02:35:16;14.50;99.90
10662;DHT22;5379;51.034;7.006;2022-09-23T02:37:55;14.50;99.90
10662;DHT22;5379;51.034;7.006;2022-09-23T02:40:32;14.40;99.90
10662;DHT22;5379;51.034;7.006;2022-09-23T02:43:06;14.50;99.90
10662;DHT22;5379;51.034;7.006;2022-09-23T02:45:34;14.50;99.90
10662;DHT22;5379;51.034;7.006;2022-09-23T02:48:07;14.40;99.90
10662;DHT22;5379;51.034;7.006;2022-09-23T02:50:36;14.40;99.90
10662;DHT22;5379;51.034;7.006;2022-09-23T02:53:03;14.40;99.90
10662;DHT22;5379;51.034;7.006;2022-09-23T02:55:31;14.40;99.90
10662;DHT22;5379;51.034;7.006;2022-09-23T02:57:59;14.30;99.90
10662;DHT22;5379;51.034;7.006;2022-09-23T03:00:35;14.30;99.90
10662;DHT22;5379;51.034;7.006;2022-09-23T03:03:14;14.20;99.80
10662;DHT22;5379;51.034;7.006;2022-09-23T03:05:52;14.20;99.90
10662;DHT22;5379;51.034;7.006;2022-09-23T03:08:39;14.10;99.90
10662;DHT22;5379;51.034;7.006;2022-09-23T03:11:10;14.20;99.90
10662;DHT22;5379;51.034;7.006;2022-09-23T03:13:59;14.30;99.90
10662;DHT22;5379;51.034;7.006;2022-09-23T03:16:33;14.20;99.90
10662;DHT22;5379;51.034;7.006;2022-09-23T03:19:13;14.10;99.90
10662;DHT22;5379;51.034;7.006;2022-09-23T03:21:45;14.10;99.90
10662;DHT22;5379;51.034;7.006;2022-09-23T03:24:15;14.00;99.70
10662;DHT22;5379;51.034;7.006;2022-09-23T03:26:45;13.90;99.90
10662;DHT22;5379;51.034;7.006;2022-09-23T03:29:14;13.80;99.90
10662;DHT22;5379;51.034;7.006;2022-09-23T03:31:42;13.80;99.90
10662;DHT22;5379;51.034;7.006;2022-09-23T03:34:14;13.70;99.90
10662;DHT22;5379;51.034;7.006;2022-09-23T03:36:48;13.70;99.90
10662;DHT22;5379;51.034;7.006;2022-09-23T03:39:26;13.70;99.90
10662;DHT22;5379;51.034;7.006;2022-09-23T03:41:58;13.60;99.90
10662;DHT22;5379;51.034;7.006;2022-09-23T03:44:27;13.60;99.90
10662;DHT22;5379;51.034;7.006;2022-09-23T03:46:57;13.60;99.90
10662;DHT22;5379;51.034;7.006;2022-09-23T03:49:27;13.60;99.90
10662;DHT22;5379;51.034;7.006;2022-09-23T03:51:58;13.60;99.90
10662;DHT22;5379;51.034;7.006;2022-09-23T03:54:25;13.60;99.90
10662;DHT22;5379;51.034;7.006;2022-09-23T03:56:54;13.60;99.90
10662;DHT22;5379;51.034;7.006;2022-09-23T03:59:22;13.50;99.90
10662;DHT22;5379;51.034;7.006;2022-09-23T04:01:49;13.20;99.90
10662;DHT22;5379;51.034;7.006;2022-09-23T04:04:16;13.00;99.90
10662;DHT22;5379;51.034;7.006;2022-09-23T04:06:45;12.80;99.90
10662;DHT22;5379;51.034;7.006;2022-09-23T04:09:12;12.80;99.90
10662;DHT22;5379;51.034;7.006;2022-09-23T04:11:39;12.70;99.90
10662;DHT22;5379;51.034;7.006;2022-09-23T04:14:06;12.70;99.90
10662;DHT22;5379;51.034;7.006;2022-09-23T04:16:33;12.60;99.90
10662;DHT22;5379;51.034;7.006;2022-09-23T04:19:00;12.60;99.90
10662;DHT22;5379;51.034;7.006;2022-09-23T04:21:27;12.50;99.90
10662;DHT22;5379;51.034;7.006;2022-09-23T04:23:57;12.60;99.90
10662;DHT22;5379;51.034;7.006;2022-09-23T04:26:24;12.70;99.90
10662;DHT22;5379;51.034;7.006;2022-09-23T04:28:52;12.90;99.90
10662;DHT22;5379;51.034;7.006;2022-09-23T04:31:19;13.00;99.90
10662;DHT22;5379;51.034;7.006;2022-09-23T04:33:46;13.10;99.90
10662;DHT22;5379;51.034;7.006;2022-09-23T04:36:14;13.20;99.90
10662;DHT22;5379;51.034;7.006;2022-09-23T04:38:42;13.20;99.90
10662;DHT22;5379;51.034;7.006;2022-09-23T04:41:11;13.20;99.90
10662;DHT22;5379;51.034;7.006;2022-09-23T04:43:38;13.20;99.90
10662;DHT22;5379;51.034;7.006;2022-09-23T04:46:07;13.20;99.90
10662;DHT22;5379;51.034;7.006;2022-09-23T04:48:35;13.10;99.90
10662;DHT22;5379;51.034;7.006;2022-09-23T04:51:03;12.90;99.90
10662;DHT22;5379;51.034;7.006;2022-09-23T04:53:31;12.80;99.90
10662;DHT22;5379;51.034;7.006;2022-09-23T04:56:02;12.70;99.90
10662;DHT22;5379;51.034;7.006;2022-09-23T04:58:31;12.70;99.90
10662;DHT22;5379;51.034;7.006;2022-09-23T05:01:07;12.70;99.90
10662;DHT22;5379;51.034;7.006;2022-09-23T05:03:34;12.80;99.90
10662;DHT22;5379;51.034;7.006;2022-09-23T05:06:01;12.80;99.90
10662;DHT22;5379;51.034;7.006;2022-09-23T05:08:28;12.80;99.90
10662;DHT22;5379;51.034;7.006;2022-09-23T05:10:56;12.80;99.90
10662;DHT22;5379;51.034;7.006;2022-09-23T05:13:23;12.60;99.90
10662;DHT22;5379;51.034;7.006;2022-09-23T05:15:57;12.50;99.90
10662;DHT22;5379;51.034;7.006;2022-09-23T05:18:25;12.50;99.90
10662;DHT22;5379;51.034;7.006;2022-09-23T05:20:53;12.40;99.90
10662;DHT22;5379;51.034;7.006;2022-09-23T05:23:21;12.50;99.90
10662;DHT22;5379;51.034;7.006;2022-09-23T05:25:52;12.50;99.90
10662;DHT22;5379;51.034;7.006;2022-09-23T05:28:21;12.50;99.90
10662;DHT22;5379;51.034;7.006;2022-09-23T05:30:48;12.50;99.90
10662;DHT22;5379;51.034;7.006;2022-09-23T05:33:16;12.60;99.90
10662;DHT22;5379;51.034;7.006;2022-09-23T05:35:45;12.60;99.90
10662;DHT22;5379;51.034;7.006;2022-09-23T05:38:13;12.70;99.90
10662;DHT22;5379;51.034;7.006;2022-09-23T05:40:41;12.80;99.90
10662;DHT22;5379;51.034;7.006;2022-09-23T05:43:09;12.80;99.90
10662;DHT22;5379;51.034;7.006;2022-09-23T05:45:36;12.80;99.90
10662;DHT22;5379;51.034;7.006;2022-09-23T05:48:03;12.90;99.90
10662;DHT22;5379;51.034;7.006;2022-09-23T05:50:32;12.80;99.90
10662;DHT22;5379;51.034;7.006;2022-09-23T05:52:59;12.90;99.90
10662;DHT22;5379;51.034;7.006;2022-09-23T05:55:26;12.80;99.90
10662;DHT22;5379;51.034;7.006;2022-09-23T05:57:53;12.60;99.90
10662;DHT22;5379;51.034;7.006;2022-09-23T06:00:20;12.50;99.90
10662;DHT22;5379;51.034;7.006;2022-09-23T06:02:47;12.50;99.90
10662;DHT22;5379;51.034;7.006;2022-09-23T06:05:14;12.60;99.90
10662;DHT22;5379;51.034;7.006;2022-09-23T06:07:43;12.70;99.90
10662;DHT22;5379;51.034;7.006;2022-09-23T06:10:10;12.70;99.90
10662;DHT22;5379;51.034;7.006;2022-09-23T06:12:37;12.80;99.90
10662;DHT22;5379;51.034;7.006;2022-09-23T06:15:06;12.90;99.90
10662;DHT22;5379;51.034;7.006;2022-09-23T06:17:33;12.90;99.90
10662;DHT22;5379;51.034;7.006;2022-09-23T06:20:00;13.10;99.90
10662;DHT22;5379;51.034;7.006;2022-09-23T06:22:27;13.10;99.90
10662;DHT22;5379;51.034;7.006;2022-09-23T06:24:56;13.20;99.90
10662;DHT22;5379;51.034;7.006;2022-09-23T06:27:24;13.20;99.90
10662;DHT22;5379;51.034;7.006;2022-09-23T06:29:51;13.30;99.90
10662;DHT22;5379;51.034;7.006;2022-09-23T06:32:18;13.30;99.90
10662;DHT22;5379;51.034;7.006;2022-09-23T06:34:45;13.30;99.90
10662;DHT22;5379;51.034;7.006;2022-09-23T06:37:12;13.20;99.90
10662;DHT22;5379;51.034;7.006;2022-09-23T06:39:39;13.30;99.90
10662;DHT22;5379;51.034;7.006;2022-09-23T06:42:08;13.40;99.90
10662;DHT22;5379;51.034;7.006;2022-09-23T06:44:35;13.50;99.90
10662;DHT22;5379;51.034;7.006;2022-09-23T06:47:02;13.60;99.90
10662;DHT22;5379;51.034;7.006;2022-09-23T06:49:29;13.70;99.90
10662;DHT22;5379;51.034;7.006;2022-09-23T06:51:56;13.80;99.90
10662;DHT22;5379;51.034;7.006;2022-09-23T06:54:23;14.10;99.90
10662;DHT22;5379;51.034;7.006;2022-09-23T06:56:53;14.20;99.90
10662;DHT22;5379;51.034;7.006;2022-09-23T06:59:21;14.30;99.90
10662;DHT22;5379;51.034;7.006;2022-09-23T07:01:49;14.30;99.90
10662;DHT22;5379;51.034;7.006;2022-09-23T07:04:16;14.30;99.90
10662;DHT22;5379;51.034;7.006;2022-09-23T07:06:43;14.40;99.90
10662;DHT22;5379;51.034;7.006;2022-09-23T07:09:10;14.40;99.90
10662;DHT22;5379;51.034;7.006;2022-09-23T07:11:37;14.50;99.90
10662;DHT22;5379;51.034;7.006;2022-09-23T07:14:04;14.40;99.90
10662;DHT22;5379;51.034;7.006;2022-09-23T07:16:33;14.40;99.90
10662;DHT22;5379;51.034;7.006;2022-09-23T07:19:00;14.50;99.90
10662;DHT22;5379;51.034;7.006;2022-09-23T07:21:27;14.60;99.90
10662;DHT22;5379;51.034;7.006;2022-09-23T07:23:54;14.80;99.90
10662;DHT22;5379;51.034;7.006;2022-09-23T07:26:23;15.10;99.90
10662;DHT22;5379;51.034;7.006;2022-09-23T07:28:52;15.40;99.90
10662;DHT22;5379;51.034;7.006;2022-09-23T07:31:20;15.60;99.70
10662;DHT22;5379;51.034;7.006;2022-09-23T07:33:48;15.80;99.30
10662;DHT22;5379;51.034;7.006;2022-09-23T07:36:17;16.00;99.10
10662;DHT22;5379;51.034;7.006;2022-09-23T07:38:45;16.50;98.50
10662;DHT22;5379;51.034;7.006;2022-09-23T07:41:14;17.00;98.40
10662;DHT22;5379;51.034;7.006;2022-09-23T07:43:42;17.00;97.30
10662;DHT22;5379;51.034;7.006;2022-09-23T07:46:11;17.10;97.10
10662;DHT22;5379;51.034;7.006;2022-09-23T07:48:41;17.10;97.00
10662;DHT22;5379;51.034;7.006;2022-09-23T07:51:11;17.20;96.90
10662;DHT22;5379;51.034;7.006;2022-09-23T07:53:39;18.50;97.60
10662;DHT22;5379;51.034;7.006;2022-09-23T07:56:05;17.20;96.50
10662;DHT22;5379;51.034;7.006;2022-09-23T07:58:33;17.00;97.30
10662;DHT22;5379;51.034;7.006;2022-09-23T08:01:02;16.70;97.00
10662;DHT22;5379;51.034;7.006;2022-09-23T08:03:29;16.60;97.10
10662;DHT22;5379;51.034;7.006;2022-09-23T08:06:03;16.60;97.20
10662;DHT22;5379;51.034;7.006;2022-09-23T08:08:31;16.70;97.10
10662;DHT22;5379;51.034;7.006;2022-09-23T08:11:01;16.80;97.30
10662;DHT22;5379;51.034;7.006;2022-09-23T08:13:28;16.80;97.10
10662;DHT22;5379;51.034;7.006;2022-09-23T08:15:55;16.90;97.30
10662;DHT22;5379;51.034;7.006;2022-09-23T08:18:23;16.90;97.10
10662;DHT22;5379;51.034;7.006;2022-09-23T08:20:50;17.10;97.30
10662;DHT22;5379;51.034;7.006;2022-09-23T08:23:17;17.20;96.90
10662;DHT22;5379;51.034;7.006;2022-09-23T08:25:47;17.30;96.90
10662;DHT22;5379;51.034;7.006;2022-09-23T08:28:15;17.30;97.00
10662;DHT22;5379;51.034;7.006;2022-09-23T08:30:44;17.40;96.90
10662;DHT22;5379;51.034;7.006;2022-09-23T08:33:13;17.50;96.80
10662;DHT22;5379;51.034;7.006;2022-09-23T08:35:40;17.50;97.10
10662;DHT22;5379;51.034;7.006;2022-09-23T08:38:07;17.40;97.00
10662;DHT22;5379;51.034;7.006;2022-09-23T08:40:36;17.40;97.20
10662;DHT22;5379;51.034;7.006;2022-09-23T08:43:06;17.50;96.80
10662;DHT22;5379;51.034;7.006;2022-09-23T08:45:34;17.50;96.40
10662;DHT22;5379;51.034;7.006;2022-09-23T08:48:06;17.70;97.30
10662;DHT22;5379;51.034;7.006;2022-09-23T08:50:39;17.70;96.20
10662;DHT22;5379;51.034;7.006;2022-09-23T08:53:12;17.80;96.70
10662;DHT22;5379;51.034;7.006;2022-09-23T08:55:44;17.90;96.50
10662;DHT22;5379;51.034;7.006;2022-09-23T08:58:28;18.00;96.20
10662;DHT22;5379;51.034;7.006;2022-09-23T09:01:08;18.10;96.10
10662;DHT22;5379;51.034;7.006;2022-09-23T09:03:39;18.40;96.20
10662;DHT22;5379;51.034;7.006;2022-09-23T09:06:13;18.40;96.00
10662;DHT22;5379;51.034;7.006;2022-09-23T09:08:43;18.40;96.80
10662;DHT22;5379;51.034;7.006;2022-09-23T09:11:13;18.40;96.20
10662;DHT22;5379;51.034;7.006;2022-09-23T09:13:49;18.40;96.00
10662;DHT22;5379;51.034;7.006;2022-09-23T09:16:35;18.40;95.90
10662;DHT22;5379;51.034;7.006;2022-09-23T09:19:12;18.40;95.80
10662;DHT22;5379;51.034;7.006;2022-09-23T09:21:43;18.50;95.60
10662;DHT22;5379;51.034;7.006;2022-09-23T09:24:17;18.60;95.60
10662;DHT22;5379;51.034;7.006;2022-09-23T09:26:45;18.50;95.60
10662;DHT22;5379;51.034;7.006;2022-09-23T09:29:16;18.60;95.70
10662;DHT22;5379;51.034;7.006;2022-09-23T09:31:46;18.60;95.70
10662;DHT22;5379;51.034;7.006;2022-09-23T09:34:21;18.70;95.70
10662;DHT22;5379;51.034;7.006;2022-09-23T09:36:58;18.80;95.70
10662;DHT22;5379;51.034;7.006;2022-09-23T09:39:29;19.00;95.90
10662;DHT22;5379;51.034;7.006;2022-09-23T09:41:56;19.00;95.80
10662;DHT22;5379;51.034;7.006;2022-09-23T09:44:31;19.20;96.00
10662;DHT22;5379;51.034;7.006;2022-09-23T09:47:22;19.20;95.50
10662;DHT22;5379;51.034;7.006;2022-09-23T09:49:55;19.40;96.10
10662;DHT22;5379;51.034;7.006;2022-09-23T09:52:25;19.50;95.80
10662;DHT22;5379;51.034;7.006;2022-09-23T09:54:55;19.50;95.40
10662;DHT22;5379;51.034;7.006;2022-09-23T09:57:29;19.60;95.90
10662;DHT22;5379;51.034;7.006;2022-09-23T10:00:17;19.60;95.50
10662;DHT22;5379;51.034;7.006;2022-09-23T10:02:44;19.70;95.00
10662;DHT22;5379;51.034;7.006;2022-09-23T10:05:24;19.60;95.30
10662;DHT22;5379;51.034;7.006;2022-09-23T10:07:53;19.50;95.80
10662;DHT22;5379;51.034;7.006;2022-09-23T10:10:22;19.50;95.20
10662;DHT22;5379;51.034;7.006;2022-09-23T10:12:50;19.70;95.20
10662;DHT22;5379;51.034;7.006;2022-09-23T10:15:30;19.80;95.00
10662;DHT22;5379;51.034;7.006;2022-09-23T10:17:59;20.00;95.40
10662;DHT22;5379;51.034;7.006;2022-09-23T10:20:33;20.40;94.70
10662;DHT22;5379;51.034;7.006;2022-09-23T10:23:06;20.20;94.00
10662;DHT22;5379;51.034;7.006;2022-09-23T10:25:35;20.20;94.50
10662;DHT22;5379;51.034;7.006;2022-09-23T10:28:38;20.10;94.70
10662;DHT22;5379;51.034;7.006;2022-09-23T10:31:09;20.20;94.30
10662;DHT22;5379;51.034;7.006;2022-09-23T10:33:44;20.30;94.90
10662;DHT22;5379;51.034;7.006;2022-09-23T10:36:14;20.30;95.00
10662;DHT22;5379;51.034;7.006;2022-09-23T10:38:41;20.20;94.50
10662;DHT22;5379;51.034;7.006;2022-09-23T10:41:13;20.40;94.30
10662;DHT22;5379;51.034;7.006;2022-09-23T10:44:13;20.50;94.10
10662;DHT22;5379;51.034;7.006;2022-09-23T10:47:07;20.70;94.10
10662;DHT22;5379;51.034;7.006;2022-09-23T10:52:36;20.50;94.20
10662;DHT22;5379;51.034;7.006;2022-09-23T10:55:15;20.50;93.40
10662;DHT22;5379;51.034;7.006;2022-09-23T10:57:54;20.60;93.20
10662;DHT22;5379;51.034;7.006;2022-09-23T11:00:37;20.60;92.90
10662;DHT22;5379;51.034;7.006;2022-09-23T11:03:27;20.70;93.10
10662;DHT22;5379;51.034;7.006;2022-09-23T11:06:08;20.80;93.90
10662;DHT22;5379;51.034;7.006;2022-09-23T11:08:49;20.90;93.40
10662;DHT22;5379;51.034;7.006;2022-09-23T11:11:36;20.90;93.30
10662;DHT22;5379;51.034;7.006;2022-09-23T11:14:17;21.10;92.80
10662;DHT22;5379;51.034;7.006;2022-09-23T11:17:02;21.10;92.10
10662;DHT22;5379;51.034;7.006;2022-09-23T11:19:54;21.20;92.80
10662;DHT22;5379;51.034;7.006;2022-09-23T11:22:35;21.40;92.60
10662;DHT22;5379;51.034;7.006;2022-09-23T11:25:22;21.40;93.10
10662;DHT22;5379;51.034;7.006;2022-09-23T11:31:04;21.40;92.90
10662;DHT22;5379;51.034;7.006;2022-09-23T11:33:44;21.40;92.10
10662;DHT22;5379;51.034;7.006;2022-09-23T11:36:22;21.40;92.20
10662;DHT22;5379;51.034;7.006;2022-09-23T11:38:53;21.50;92.50
10662;DHT22;5379;51.034;7.006;2022-09-23T11:41:26;21.50;92.50
10662;DHT22;5379;51.034;7.006;2022-09-23T11:43:59;21.50;92.20
10662;DHT22;5379;51.034;7.006;2022-09-23T11:46:33;21.60;92.30
10662;DHT22;5379;51.034;7.006;2022-09-23T11:49:07;21.60;92.60
10662;DHT22;5379;51.034;7.006;2022-09-23T11:51:40;21.60;92.40
10662;DHT22;5379;51.034;7.006;2022-09-23T11:54:14;21.60;92.30
10662;DHT22;5379;51.034;7.006;2022-09-23T11:56:44;21.60;91.90
10662;DHT22;5379;51.034;7.006;2022-09-23T11:59:17;21.70;92.00
10662;DHT22;5379;51.034;7.006;2022-09-23T12:01:50;21.70;92.00
10662;DHT22;5379;51.034;7.006;2022-09-23T12:04:25;21.60;91.70
10662;DHT22;5379;51.034;7.006;2022-09-23T12:06:59;21.70;91.60
10662;DHT22;5379;51.034;7.006;2022-09-23T12:09:33;21.80;91.50
10662;DHT22;5379;51.034;7.006;2022-09-23T12:12:05;21.80;91.40
10662;DHT22;5379;51.034;7.006;2022-09-23T12:14:52;21.80;91.30
10662;DHT22;5379;51.034;7.006;2022-09-23T12:17:33;22.00;92.20
10662;DHT22;5379;51.034;7.006;2022-09-23T12:23:22;22.00;92.60
10662;DHT22;5379;51.034;7.006;2022-09-23T12:25:53;22.00;92.60
10662;DHT22;5379;51.034;7.006;2022-09-23T12:28:25;22.20;92.80
10662;DHT22;5379;51.034;7.006;2022-09-23T12:30:56;22.10;92.00
10662;DHT22;5379;51.034;7.006;2022-09-23T12:33:25;22.20;91.80
10662;DHT22;5379;51.034;7.006;2022-09-23T12:35:54;22.20;92.20
10662;DHT22;5379;51.034;7.006;2022-09-23T12:38:24;22.30;91.80
10662;DHT22;5379;51.034;7.006;2022-09-23T12:40:52;22.30;91.70
10662;DHT22;5379;51.034;7.006;2022-09-23T12:43:27;22.30;91.80
10662;DHT22;5379;51.034;7.006;2022-09-23T12:46:16;22.20;91.20
10662;DHT22;5379;51.034;7.006;2022-09-23T12:48:57;22.30;92.00
10662;DHT22;5379;51.034;7.006;2022-09-23T12:51:26;22.30;91.90
10662;DHT22;5379;51.034;7.006;2022-09-23T12:54:21;22.30;91.00
10662;DHT22;5379;51.034;7.006;2022-09-23T12:57:00;22.30;90.70
10662;DHT22;5379;51.034;7.006;2022-09-23T12:59:30;22.40;91.20
10662;DHT22;5379;51.034;7.006;2022-09-23T13:02:23;22.40;90.90
10662;DHT22;5379;51.034;7.006;2022-09-23T13:04:56;22.30;90.60
10662;DHT22;5379;51.034;7.006;2022-09-23T13:07:44;22.40;90.50
10662;DHT22;5379;51.034;7.006;2022-09-23T13:10:17;22.60;90.90
10662;DHT22;5379;51.034;7.006;2022-09-23T13:12:48;22.60;90.60
10662;DHT22;5379;51.034;7.006;2022-09-23T13:15:23;22.60;90.50
10662;DHT22;5379;51.034;7.006;2022-09-23T13:17:50;22.60;90.40
10662;DHT22;5379;51.034;7.006;2022-09-23T13:20:35;22.60;90.10
10662;DHT22;5379;51.034;7.006;2022-09-23T13:23:18;22.70;90.30
10662;DHT22;5379;51.034;7.006;2022-09-23T13:25:47;22.80;90.60
10662;DHT22;5379;51.034;7.006;2022-09-23T13:28:34;22.80;90.20
10662;DHT22;5379;51.034;7.006;2022-09-23T13:31:04;22.80;90.40
10662;DHT22;5379;51.034;7.006;2022-09-23T13:33:39;22.80;90.70
10662;DHT22;5379;51.034;7.006;2022-09-23T13:36:13;22.70;90.10
10662;DHT22;5379;51.034;7.006;2022-09-23T13:38:40;22.70;90.20
10662;DHT22;5379;51.034;7.006;2022-09-23T13:41:11;22.70;90.10
10662;DHT22;5379;51.034;7.006;2022-09-23T13:43:41;22.70;89.40
10662;DHT22;5379;51.034;7.006;2022-09-23T13:46:10;22.70;89.70
10662;DHT22;5379;51.034;7.006;2022-09-23T13:48:39;22.80;90.20
10662;DHT22;5379;51.034;7.006;2022-09-23T13:51:09;22.70;89.90
10662;DHT22;5379;51.034;7.006;2022-09-23T13:53:36;22.70;89.70
10662;DHT22;5379;51.034;7.006;2022-09-23T13:56:05;22.80;90.00
10662;DHT22;5379;51.034;7.006;2022-09-23T13:58:34;22.70;89.40
10662;DHT22;5379;51.034;7.006;2022-09-23T14:01:02;22.70;90.20
10662;DHT22;5379;51.034;7.006;2022-09-23T14:03:30;22.80;90.40
10662;DHT22;5379;51.034;7.006;2022-09-23T14:05:59;22.80;90.20
10662;DHT22;5379;51.034;7.006;2022-09-23T14:08:27;22.90;90.10
10662;DHT22;5379;51.034;7.006;2022-09-23T14:10:56;22.90;90.20
10662;DHT22;5379;51.034;7.006;2022-09-23T14:13:25;23.00;91.00
10662;DHT22;5379;51.034;7.006;2022-09-23T14:15:56;23.00;90.80
10662;DHT22;5379;51.034;7.006;2022-09-23T14:18:32;23.60;90.70
10662;DHT22;5379;51.034;7.006;2022-09-23T14:21:00;22.80;90.50
10662;DHT22;5379;51.034;7.006;2022-09-23T14:23:28;22.90;90.50
10662;DHT22;5379;51.034;7.006;2022-09-23T14:25:55;22.80;90.30
10662;DHT22;5379;51.034;7.006;2022-09-23T14:28:25;22.80;90.40
10662;DHT22;5379;51.034;7.006;2022-09-23T14:30:55;22.90;90.70
10662;DHT22;5379;51.034;7.006;2022-09-23T14:33:25;23.00;90.90
10662;DHT22;5379;51.034;7.006;2022-09-23T14:35:55;22.90;91.00
10662;DHT22;5379;51.034;7.006;2022-09-23T14:38:25;23.00;91.30
10662;DHT22;5379;51.034;7.006;2022-09-23T14:41:21;23.00;91.20
10662;DHT22;5379;51.034;7.006;2022-09-23T14:43:52;23.00;90.80
10662;DHT22;5379;51.034;7.006;2022-09-23T14:46:23;22.90;90.90
10662;DHT22;5379;51.034;7.006;2022-09-23T14:49:03;23.00;91.00
10662;DHT22;5379;51.034;7.006;2022-09-23T14:51:36;22.90;91.10
10662;DHT22;5379;51.034;7.006;2022-09-23T14:57:23;22.90;90.90
10662;DHT22;5379;51.034;7.006;2022-09-23T14:59:52;22.90;91.00
10662;DHT22;5379;51.034;7.006;2022-09-23T15:02:29;22.90;91.20
10662;DHT22;5379;51.034;7.006;2022-09-23T15:05:12;23.00;91.40
10662;DHT22;5379;51.034;7.006;2022-09-23T15:07:41;22.90;91.60
10662;DHT22;5379;51.034;7.006;2022-09-23T15:10:16;22.90;91.30
10662;DHT22;5379;51.034;7.006;2022-09-23T15:12:45;22.90;91.30
10662;DHT22;5379;51.034;7.006;2022-09-23T15:15:16;22.90;91.50
10662;DHT22;5379;51.034;7.006;2022-09-23T15:17:44;22.90;91.60
10662;DHT22;5379;51.034;7.006;2022-09-23T15:20:21;22.80;91.20
10662;DHT22;5379;51.034;7.006;2022-09-23T15:22:51;22.80;91.40
10662;DHT22;5379;51.034;7.006;2022-09-23T15:25:20;22.60;90.90
10662;DHT22;5379;51.034;7.006;2022-09-23T15:27:59;22.70;91.20
10662;DHT22;5379;51.034;7.006;2022-09-23T15:30:27;22.70;91.00
10662;DHT22;5379;51.034;7.006;2022-09-23T15:32:56;22.70;90.90
10662;DHT22;5379;51.034;7.006;2022-09-23T15:35:24;22.70;90.80
10662;DHT22;5379;51.034;7.006;2022-09-23T15:37:55;22.80;90.80
10662;DHT22;5379;51.034;7.006;2022-09-23T15:40:24;22.80;90.90
10662;DHT22;5379;51.034;7.006;2022-09-23T15:42:53;22.70;90.50
10662;DHT22;5379;51.034;7.006;2022-09-23T15:45:28;22.70;91.00
10662;DHT22;5379;51.034;7.006;2022-09-23T15:47:59;22.70;90.70
10662;DHT22;5379;51.034;7.006;2022-09-23T15:50:28;22.60;90.40
10662;DHT22;5379;51.034;7.006;2022-09-23T15:52:56;22.60;90.60
10662;DHT22;5379;51.034;7.006;2022-09-23T15:55:23;22.60;90.30
10662;DHT22;5379;51.034;7.006;2022-09-23T15:57:50;22.60;90.40
10662;DHT22;5379;51.034;7.006;2022-09-23T16:00:18;23.00;92.60
10662;DHT22;5379;51.034;7.006;2022-09-23T16:02:46;23.40;92.30
10662;DHT22;5379;51.034;7.006;2022-09-23T16:05:21;23.50;92.40
10662;DHT22;5379;51.034;7.006;2022-09-23T16:07:49;23.70;93.60
10662;DHT22;5379;51.034;7.006;2022-09-23T16:10:18;23.70;93.80
10662;DHT22;5379;51.034;7.006;2022-09-23T16:12:46;23.80;93.70
10662;DHT22;5379;51.034;7.006;2022-09-23T16:15:16;23.60;91.40
10662;DHT22;5379;51.034;7.006;2022-09-23T16:17:43;23.80;94.60
10662;DHT22;5379;51.034;7.006;2022-09-23T16:20:12;23.90;94.10
10662;DHT22;5379;51.034;7.006;2022-09-23T16:22:46;23.90;94.50
10662;DHT22;5379;51.034;7.006;2022-09-23T16:25:15;23.40;91.00